sensor_id;sensor_type;location;lat;lon;timestamp;temperature;humidity
16178;DHT22;8195;51.220;9.746;2023-04-25T00:03:09;5.90;97.20
16178;DHT22;8195;51.220;9.746;2023-04-25T00:13:30;5.70;97.20
16178;DHT22;8195;51.220;9.746;2023-04-25T00:23:52;5.70;97.20
16178;DHT22;8195;51.220;9.746;2023-04-25T00:34:13;5.60;97.20
16178;DHT22;8195;51.220;9.746;2023-04-25T00:44:35;5.70;97.20
16178;DHT22;8195;51.220;9.746;2023-04-25T00:54:57;5.90;97.20
16178;DHT22;8195;51.220;9.746;2023-04-25T01:05:18;5.90;97.20
16178;DHT22;8195;51.220;9.746;2023-04-25T01:15:38;5.80;97.20
16178;DHT22;8195;51.220;9.746;2023-04-25T01:26:00;5.70;97.20
16178;DHT22;8195;51.220;9.746;2023-04-25T01:36:22;5.60;97.20
16178;DHT22;8195;51.220;9.746;2023-04-25T01:46:43;5.60;97.20
16178;DHT22;8195;51.220;9.746;2023-04-25T01:57:04;5.50;97.20
16178;DHT22;8195;51.220;9.746;2023-04-25T02:07:26;5.30;97.20
16178;DHT22;8195;51.220;9.746;2023-04-25T02:17:47;5.10;97.20
16178;DHT22;8195;51.220;9.746;2023-04-25T02:28:07;5.00;97.20
16178;DHT22;8195;51.220;9.746;2023-04-25T02:38:28;4.90;97.20
16178;DHT22;8195;51.220;9.746;2023-04-25T02:48:49;4.80;97.20
16178;DHT22;8195;51.220;9.746;2023-04-25T02:59:10;4.70;97.20
16178;DHT22;8195;51.220;9.746;2023-04-25T03:09:31;4.60;97.20
16178;DHT22;8195;51.220;9.746;2023-04-25T03:19:52;4.60;97.20
16178;DHT22;8195;51.220;9.746;2023-04-25T03:30:13;4.60;97.20
16178;DHT22;8195;51.220;9.746;2023-04-25T03:40:34;4.80;97.20
16178;DHT22;8195;51.220;9.746;2023-04-25T03:50:55;5.00;97.20
16178;DHT22;8195;51.220;9.746;2023-04-25T04:01:16;5.10;97.20
16178;DHT22;8195;51.220;9.746;2023-04-25T04:11:38;5.10;97.20
16178;DHT22;8195;51.220;9.746;2023-04-25T04:21:59;5.20;97.20
16178;DHT22;8195;51.220;9.746;2023-04-25T04:32:20;5.30;97.20
16178;DHT22;8195;51.220;9.746;2023-04-25T04:42:42;5.40;97.20
16178;DHT22;8195;51.220;9.746;2023-04-25T04:53:04;5.40;97.20
16178;DHT22;8195;51.220;9.746;2023-04-25T05:03:25;5.50;97.20
16178;DHT22;8195;51.220;9.746;2023-04-25T05:13:46;5.60;97.20
16178;DHT22;8195;51.220;9.746;2023-04-25T05:24:07;5.60;97.20
16178;DHT22;8195;51.220;9.746;2023-04-25T05:34:28;5.70;97.20
16178;DHT22;8195;51.220;9.746;2023-04-25T05:44:48;5.80;97.20
16178;DHT22;8195;51.220;9.746;2023-04-25T05:55:09;5.70;97.20
16178;DHT22;8195;51.220;9.746;2023-04-25T06:05:30;5.80;97.20
16178;DHT22;8195;51.220;9.746;2023-04-25T06:15:51;5.80;97.20
16178;DHT22;8195;51.220;9.746;2023-04-25T06:26:15;5.90;97.20
16178;DHT22;8195;51.220;9.746;2023-04-25T06:36:36;5.80;97.20
16178;DHT22;8195;51.220;9.746;2023-04-25T06:46:57;5.90;97.20
16178;DHT22;8195;51.220;9.746;2023-04-25T06:57:18;6.10;97.20
16178;DHT22;8195;51.220;9.746;2023-04-25T07:07:42;6.20;97.20
16178;DHT22;8195;51.220;9.746;2023-04-25T07:18:03;6.20;97.20
16178;DHT22;8195;51.220;9.746;2023-04-25T07:28:24;6.00;97.20
16178;DHT22;8195;51.220;9.746;2023-04-25T07:38:45;6.00;97.20
16178;DHT22;8195;51.220;9.746;2023-04-25T07:49:06;6.30;97.20
16178;DHT22;8195;51.220;9.746;2023-04-25T07:59:27;6.30;97.20
16178;DHT22;8195;51.220;9.746;2023-04-25T08:09:48;6.50;97.20
16178;DHT22;8195;51.220;9.746;2023-04-25T08:20:10;7.00;97.20
16178;DHT22;8195;51.220;9.746;2023-04-25T08:30:47;7.60;97.20
16178;DHT22;8195;51.220;9.746;2023-04-25T08:41:11;7.90;97.20
16178;DHT22;8195;51.220;9.746;2023-04-25T08:51:33;8.70;97.20
16178;DHT22;8195;51.220;9.746;2023-04-25T09:01:54;8.10;97.20
16178;DHT22;8195;51.220;9.746;2023-04-25T09:12:18;7.90;97.20
16178;DHT22;8195;51.220;9.746;2023-04-25T09:22:39;7.70;97.20
16178;DHT22;8195;51.220;9.746;2023-04-25T09:33:09;7.80;97.20
16178;DHT22;8195;51.220;9.746;2023-04-25T09:43:30;8.20;97.20
16178;DHT22;8195;51.220;9.746;2023-04-25T09:53:51;9.00;97.20
16178;DHT22;8195;51.220;9.746;2023-04-25T10:04:12;9.90;97.20
16178;DHT22;8195;51.220;9.746;2023-04-25T10:14:35;9.70;97.20
16178;DHT22;8195;51.220;9.746;2023-04-25T10:24:57;8.90;97.20
16178;DHT22;8195;51.220;9.746;2023-04-25T10:35:23;8.50;97.20
16178;DHT22;8195;51.220;9.746;2023-04-25T10:45:51;9.00;97.20
16178;DHT22;8195;51.220;9.746;2023-04-25T10:56:18;9.20;97.20
16178;DHT22;8195;51.220;9.746;2023-04-25T11:06:46;9.40;97.20
16178;DHT22;8195;51.220;9.746;2023-04-25T11:17:11;9.50;97.20
16178;DHT22;8195;51.220;9.746;2023-04-25T11:27:32;8.90;97.20
16178;DHT22;8195;51.220;9.746;2023-04-25T11:37:53;8.70;97.20
16178;DHT22;8195;51.220;9.746;2023-04-25T11:48:14;8.80;97.20
16178;DHT22;8195;51.220;9.746;2023-04-25T11:58:57;9.80;97.20
16178;DHT22;8195;51.220;9.746;2023-04-25T12:09:32;10.00;97.20
16178;DHT22;8195;51.220;9.746;2023-04-25T12:19:53;9.60;97.20
16178;DHT22;8195;51.220;9.746;2023-04-25T12:30:14;9.70;97.20
16178;DHT22;8195;51.220;9.746;2023-04-25T12:40:35;9.40;97.20
16178;DHT22;8195;51.220;9.746;2023-04-25T12:50:56;9.60;97.20
16178;DHT22;8195;51.220;9.746;2023-04-25T13:01:17;9.80;97.20
16178;DHT22;8195;51.220;9.746;2023-04-25T13:11:37;10.30;97.20
16178;DHT22;8195;51.220;9.746;2023-04-25T13:21:58;9.90;97.20
16178;DHT22;8195;51.220;9.746;2023-04-25T13:32:19;9.30;97.20
16178;DHT22;8195;51.220;9.746;2023-04-25T13:42:40;9.10;97.20
16178;DHT22;8195;51.220;9.746;2023-04-25T13:53:01;9.20;97.20
16178;DHT22;8195;51.220;9.746;2023-04-25T14:03:22;9.40;97.20
16178;DHT22;8195;51.220;9.746;2023-04-25T14:13:43;9.70;97.20
16178;DHT22;8195;51.220;9.746;2023-04-25T14:24:04;9.50;97.20
16178;DHT22;8195;51.220;9.746;2023-04-25T14:34:25;9.10;97.20
16178;DHT22;8195;51.220;9.746;2023-04-25T14:44:47;8.90;97.20
16178;DHT22;8195;51.220;9.746;2023-04-25T14:55:08;9.00;97.20
16178;DHT22;8195;51.220;9.746;2023-04-25T15:05:29;9.10;97.20
16178;DHT22;8195;51.220;9.746;2023-04-25T15:15:50;9.20;97.20
16178;DHT22;8195;51.220;9.746;2023-04-25T15:26:11;9.30;97.20
16178;DHT22;8195;51.220;9.746;2023-04-25T15:36:32;9.20;97.20
16178;DHT22;8195;51.220;9.746;2023-04-25T15:46:53;9.30;97.20
16178;DHT22;8195;51.220;9.746;2023-04-25T15:57:14;9.00;97.20
16178;DHT22;8195;51.220;9.746;2023-04-25T16:07:35;8.60;97.20
16178;DHT22;8195;51.220;9.746;2023-04-25T16:17:55;8.30;97.20
16178;DHT22;8195;51.220;9.746;2023-04-25T16:28:25;8.40;97.20
16178;DHT22;8195;51.220;9.746;2023-04-25T16:38:46;8.30;97.20
16178;DHT22;8195;51.220;9.746;2023-04-25T16:49:07;8.20;97.20
16178;DHT22;8195;51.220;9.746;2023-04-25T16:59:28;8.00;97.20
16178;DHT22;8195;51.220;9.746;2023-04-25T17:10:03;7.90;97.20
16178;DHT22;8195;51.220;9.746;2023-04-25T17:20:24;7.80;97.20
16178;DHT22;8195;51.220;9.746;2023-04-25T17:30:45;7.60;97.20
16178;DHT22;8195;51.220;9.746;2023-04-25T17:41:12;7.50;97.20
16178;DHT22;8195;51.220;9.746;2023-04-25T17:51:33;7.40;97.20
16178;DHT22;8195;51.220;9.746;2023-04-25T18:01:54;7.30;97.20
16178;DHT22;8195;51.220;9.746;2023-04-25T18:12:17;7.30;97.20
16178;DHT22;8195;51.220;9.746;2023-04-25T18:22:41;7.10;97.20
16178;DHT22;8195;51.220;9.746;2023-04-25T18:33:05;6.90;97.20
16178;DHT22;8195;51.220;9.746;2023-04-25T18:43:26;6.90;97.20
16178;DHT22;8195;51.220;9.746;2023-04-25T18:53:48;6.80;97.20
16178;DHT22;8195;51.220;9.746;2023-04-25T19:04:09;6.80;97.20
16178;DHT22;8195;51.220;9.746;2023-04-25T19:14:31;6.70;97.20
16178;DHT22;8195;51.220;9.746;2023-04-25T19:24:52;6.50;97.20
16178;DHT22;8195;51.220;9.746;2023-04-25T19:35:22;6.40;97.20
16178;DHT22;8195;51.220;9.746;2023-04-25T19:45:43;6.20;97.20
16178;DHT22;8195;51.220;9.746;2023-04-25T19:56:07;6.10;97.20
16178;DHT22;8195;51.220;9.746;2023-04-25T20:06:28;5.90;97.20
16178;DHT22;8195;51.220;9.746;2023-04-25T20:16:49;5.80;97.20
16178;DHT22;8195;51.220;9.746;2023-04-25T20:27:10;5.50;97.20
16178;DHT22;8195;51.220;9.746;2023-04-25T20:37:31;5.40;97.20
16178;DHT22;8195;51.220;9.746;2023-04-25T20:47:52;5.50;97.20
16178;DHT22;8195;51.220;9.746;2023-04-25T20:58:13;5.40;97.20
16178;DHT22;8195;51.220;9.746;2023-04-25T21:08:34;5.40;97.20
16178;DHT22;8195;51.220;9.746;2023-04-25T21:18:55;5.40;97.20
16178;DHT22;8195;51.220;9.746;2023-04-25T21:29:16;5.40;97.20
16178;DHT22;8195;51.220;9.746;2023-04-25T21:39:37;5.40;97.20
16178;DHT22;8195;51.220;9.746;2023-04-25T21:49:58;5.30;97.20
16178;DHT22;8195;51.220;9.746;2023-04-25T22:00:19;5.30;97.20
16178;DHT22;8195;51.220;9.746;2023-04-25T22:10:41;5.30;97.20
16178;DHT22;8195;51.220;9.746;2023-04-25T22:21:02;5.20;97.20
16178;DHT22;8195;51.220;9.746;2023-04-25T22:31:23;5.20;97.20
16178;DHT22;8195;51.220;9.746;2023-04-25T22:41:44;5.00;97.20
16178;DHT22;8195;51.220;9.746;2023-04-25T22:52:05;4.90;97.20
16178;DHT22;8195;51.220;9.746;2023-04-25T23:02:25;4.90;97.20
16178;DHT22;8195;51.220;9.746;2023-04-25T23:12:46;4.80;97.20
16178;DHT22;8195;51.220;9.746;2023-04-25T23:23:07;4.70;97.20
16178;DHT22;8195;51.220;9.746;2023-04-25T23:33:28;4.50;97.20
16178;DHT22;8195;51.220;9.746;2023-04-25T23:43:49;4.40;97.20
16178;DHT22;8195;51.220;9.746;2023-04-25T23:54:10;4.20;97.20
